Airfield :
LOGIN :

Register | Disclaimer

   EN    FR    IT 

 










Legend :    VFR   Marginal VFR   IFR   Intensive IFR   Very Intensive IFR
Visi :
Ceiling :
>= 8 km
>= 3000ft
5 to 8 km
1000 to 3000 ft
1500m to 5 km
500 to 1000 ft
800 to 1500m
200 to 500 ft
< 800m
< 200 ft
Symbols :   Thunderstorms  Fog  Heavy snow  Heavy precipitations  Wind > 20 kt
SIGMETs :     Misc.  Thunderstorms  Icing  Turbulence  Mountain Waves  Volcanic Ashes






- Airport Elevation : 7 ft
- IATA code : ESH


EGKA - Shoreham

CURRENT METAR :
  • 271720Z 30011KT 9999 FEW045 07/M02 Q1009

EXPIRED METARs :
  • 271650Z 30009KT 9999 FEW045 07/M01 Q1008
  • 271620Z 30016G26KT 9999 FEW045 08/M01 Q1007
  • 271550Z 31016KT 9999 SCT040 08/M02 Q1007
  • 271520Z 31016KT 9999 SCT040 08/M00 Q1005
  • 271450Z 31017G27KT 9999 SCT034 08/M00 Q1005

TAF TAF EGKA
Valid from the 27 at 15:00 until the 27 at 20:00 UTC


271406Z 2715/2720 32020G30KT 9999 SCT020
BECMG 2719/2720 29008KT
ATIS : +44 1273 467 372



MET'MAP, your aeronautical weather chart ! - Copyright ORBIFLY December 2007 - Disclaimer

ORBIFLY MET'MAP TEAM :

Programming & Development : Alexandra Zaïnal
Concept & original design : Baudouin d'Aumeries
Assistance for programming : Marc-Olivier Méhu
Technical & hardware support : Manuel Goepfert

Contact : metmap@orbifly.com




SOURCES & CREDITS :

   NOAA